Sylvan Lake, Michigan
Current Conditions -  °F | °C
As of 9:53 PM on Friday 21 Nov 2014 (Local Time) from KPTK Reporting Station
Few Clouds Few Clouds  
Wind Chill: -12°   Ceiling: Unl
Heat Index: -7°   Visibility: 10mi
Dew Point: -12°   Wind: 8mph
Humidity: 68%   Direction: 190°S
Pressure: 30.33"   Gusts: NA
Location:  42.6112°N, 83.3377°W
Report Text: KPTK 220253Z 19007KT 10SM FEW250 M07/M12 A3033 RMK AO2 SLP287 T10671117 56018
Loading
Personal Weather Stations






























Interactive Weather Map New forecast layout! Learn more

10-Day Weather Forecast

Advertisements
Track Severe Weather on mobile